Time;durP1;ratioP1;P1;durP2;ratioP2;P2;SDS_P1;SDS_P2;PMS_P1;PMS_P2;Temp;Humidity;BMP_temperature;BMP_pressure;BME280_temperature;BME280_humidity;BME280_pressure;Samples;Min_cycle;Max_cycle;Signal;HPM_P1;HPM_P2
2023/08/28 00:00:13;;;;;;;11.50;4.53;;;;;;;;;;5099762;28;20028;-58
2023/08/28 00:02:39;;;;;;;9.70;3.47;;;;;;;;;;5099806;28;20406;-56
2023/08/28 00:05:05;;;;;;;6.35;2.97;;;;;;;;;;5097232;28;20032;-56
2023/08/28 00:07:31;;;;;;;10.18;4.10;;;;;;;;;;5095168;28;20073;-56
2023/08/28 00:09:57;;;;;;;5.18;3.03;;;;;;;;;;5104769;28;20589;-56
2023/08/28 00:12:23;;;;;;;10.35;3.72;;;;;;;;;;5098194;28;20024;-56
2023/08/28 00:14:50;;;;;;;11.13;4.53;;;;;;;;;;5088743;28;20151;-56
2023/08/28 00:17:17;;;;;;;12.15;3.60;;;;;;;;;;5101186;28;20039;-56
2023/08/28 00:19:44;;;;;;;10.05;3.17;;;;;;;;;;5097357;28;20580;-60
2023/08/28 00:22:10;;;;;;;8.00;3.58;;;;;;;;;;5099179;28;20027;-56
2023/08/28 00:24:36;;;;;;;14.27;4.18;;;;;;;;;;5102541;28;20027;-56
2023/08/28 00:27:02;;;;;;;11.45;3.65;;;;;;;;;;5100390;28;20024;-56
2023/08/28 00:29:28;;;;;;;14.18;4.22;;;;;;;;;;5101738;28;20077;-56
2023/08/28 00:31:54;;;;;;;8.10;3.05;;;;;;;;;;5100254;28;20032;-56
2023/08/28 00:34:20;;;;;;;11.15;3.45;;;;;;;;;;5100095;28;20037;-56
2023/08/28 00:36:46;;;;;;;10.23;3.30;;;;;;;;;;5103568;28;20434;-59
2023/08/28 00:39:12;;;;;;;11.63;3.65;;;;;;;;;;5102144;28;20028;-56
2023/08/28 00:41:39;;;;;;;14.02;3.15;;;;;;;;;;5103665;28;20045;-57
2023/08/28 00:44:05;;;;;;;9.20;3.28;;;;;;;;;;5103119;28;20031;-56
2023/08/28 00:46:32;;;;;;;8.52;3.30;;;;;;;;;;5101133;28;20154;-56
2023/08/28 00:48:58;;;;;;;5.55;3.00;;;;;;;;;;5101886;28;20035;-56
2023/08/28 00:51:24;;;;;;;10.82;3.30;;;;;;;;;;5099448;28;20019;-56
2023/08/28 00:53:50;;;;;;;6.20;2.83;;;;;;;;;;5104414;28;20033;-55
2023/08/28 00:56:16;;;;;;;12.93;3.63;;;;;;;;;;5097228;28;20032;-56
2023/08/28 00:58:42;;;;;;;10.85;3.50;;;;;;;;;;5104275;28;20024;-57
2023/08/28 01:01:09;;;;;;;8.77;3.20;;;;;;;;;;5097931;28;20024;-57
2023/08/28 01:03:35;;;;;;;10.27;3.30;;;;;;;;;;5101102;28;20023;-56
2023/08/28 01:06:04;;;;;;;11.90;4.28;;;;;;;;;;5102937;28;20019;-56
2023/08/28 01:08:34;;;;;;;12.82;3.65;;;;;;;;;;5094294;28;20497;-56
2023/08/28 01:11:23;;;;;;;14.55;3.63;;;;;;;;;;5098756;28;20655;-56
2023/08/28 01:13:57;;;;;;;8.73;3.15;;;;;;;;;;5093008;28;20441;-56
2023/08/28 01:16:24;;;;;;;11.70;4.17;;;;;;;;;;5081391;28;20032;-56
2023/08/28 01:18:51;;;;;;;10.00;3.40;;;;;;;;;;5098428;28;20020;-56
2023/08/28 01:21:18;;;;;;;7.85;3.33;;;;;;;;;;5105376;28;20031;-56
2023/08/28 01:23:49;;;;;;;4.72;2.58;;;;;;;;;;5093917;28;20099;-56
2023/08/28 01:26:16;;;;;;;8.77;3.90;;;;;;;;;;5094652;28;20024;-56
2023/08/28 01:28:42;;;;;;;10.80;3.50;;;;;;;;;;5100498;28;20019;-56
2023/08/28 01:31:09;;;;;;;13.15;3.72;;;;;;;;;;5104624;28;20617;-57
2023/08/28 01:33:36;;;;;;;12.35;3.28;;;;;;;;;;5103571;28;20051;-56
2023/08/28 01:36:11;;;;;;;9.10;3.20;;;;;;;;;;5101501;28;20024;-57
2023/08/28 01:38:37;;;;;;;;;;;;;;;;;;5098960;28;20052;-57
2023/08/28 01:41:08;;;;;;;7.40;3.15;;;;;;;;;;5102153;28;19962;-56
2023/08/28 01:43:38;;;;;;;9.27;2.85;;;;;;;;;;5099969;28;20020;-56
2023/08/28 01:46:04;;;;;;;8.35;3.88;;;;;;;;;;5098874;28;20660;-57
2023/08/28 01:48:30;;;;;;;11.18;3.55;;;;;;;;;;5100336;28;20471;-57
2023/08/28 01:50:56;;;;;;;9.77;3.85;;;;;;;;;;5102168;28;20425;-56
2023/08/28 01:53:23;;;;;;;5.68;3.03;;;;;;;;;;5102298;28;20046;-56
2023/08/28 01:55:49;;;;;;;9.10;3.17;;;;;;;;;;5101598;28;20024;-56
2023/08/28 01:58:15;;;;;;;12.27;2.85;;;;;;;;;;5103683;28;20440;-56
2023/08/28 02:00:41;;;;;;;8.00;2.95;;;;;;;;;;5096497;28;20020;-56
2023/08/28 02:03:09;;;;;;;9.63;3.58;;;;;;;;;;5088936;28;20051;-56
2023/08/28 02:05:35;;;;;;;7.03;3.63;;;;;;;;;;5094410;28;20410;-57
2023/08/28 02:08:01;;;;;;;4.93;2.55;;;;;;;;;;5098458;28;20030;-56
2023/08/28 02:10:27;;;;;;;6.68;2.85;;;;;;;;;;5101208;27;20435;-56
2023/08/28 02:12:53;;;;;;;6.90;3.33;;;;;;;;;;5103969;28;20024;-56
2023/08/28 02:15:19;;;;;;;8.20;2.80;;;;;;;;;;5101999;28;20188;-57
2023/08/28 02:17:45;;;;;;;5.60;2.92;;;;;;;;;;5094912;28;20023;-56
2023/08/28 02:20:11;;;;;;;7.88;3.30;;;;;;;;;;5102451;28;20110;-57
2023/08/28 02:22:37;;;;;;;7.18;3.00;;;;;;;;;;5104615;28;20168;-60
2023/08/28 02:25:05;;;;;;;7.03;2.60;;;;;;;;;;5103484;28;20483;-58
2023/08/28 02:27:31;;;;;;;6.55;2.78;;;;;;;;;;5100980;28;20023;-57
2023/08/28 02:29:57;;;;;;;8.20;2.92;;;;;;;;;;5104724;28;20605;-60
2023/08/28 02:32:24;;;;;;;8.27;2.90;;;;;;;;;;5101694;28;20430;-56
2023/08/28 02:34:50;;;;;;;6.13;2.55;;;;;;;;;;5081418;28;20032;-56
2023/08/28 02:37:16;;;;;;;6.72;2.45;;;;;;;;;;5092648;28;20088;-56
2023/08/28 02:39:42;;;;;;;4.97;2.72;;;;;;;;;;5084894;28;20032;-60
2023/08/28 02:42:08;;;;;;;9.40;3.50;;;;;;;;;;5102682;28;20368;-56
2023/08/28 02:44:34;;;;;;;7.43;2.50;;;;;;;;;;5104830;28;20485;-60
2023/08/28 02:47:00;;;;;;;6.57;2.80;;;;;;;;;;5104033;28;20455;-56
2023/08/28 02:49:27;;;;;;;12.20;3.25;;;;;;;;;;5100891;28;20073;-57
2023/08/28 02:51:53;;;;;;;7.30;2.90;;;;;;;;;;5100376;28;20051;-56
2023/08/28 02:54:19;;;;;;;12.45;3.65;;;;;;;;;;5105081;28;20024;-58
2023/08/28 02:56:45;;;;;;;5.75;2.67;;;;;;;;;;5103881;28;20051;-56
2023/08/28 02:59:11;;;;;;;5.65;2.78;;;;;;;;;;5096287;28;20019;-56
2023/08/28 03:01:37;;;;;;;9.05;2.92;;;;;;;;;;5098129;28;20450;-56
2023/08/28 03:04:06;;;;;;;6.53;3.15;;;;;;;;;;5095520;28;20547;-56
2023/08/28 03:06:36;;;;;;;8.80;2.60;;;;;;;;;;5102076;28;20035;-56
2023/08/28 03:09:02;;;;;;;9.27;2.92;;;;;;;;;;5104328;28;20074;-56
2023/08/28 03:11:29;;;;;;;3.33;2.35;;;;;;;;;;5100025;28;20288;-56
2023/08/28 03:13:55;;;;;;;7.65;2.50;;;;;;;;;;5085355;28;20550;-56
2023/08/28 03:16:21;;;;;;;7.55;2.45;;;;;;;;;;5085681;28;20031;-56
2023/08/28 03:18:48;;;;;;;8.68;2.75;;;;;;;;;;5097610;28;20557;-56
2023/08/28 03:21:14;;;;;;;5.15;2.72;;;;;;;;;;5095543;28;20027;-56
2023/08/28 03:23:40;;;;;;;7.00;2.60;;;;;;;;;;5105990;28;20100;-56
2023/08/28 03:26:06;;;;;;;7.57;2.50;;;;;;;;;;5084927;28;20511;-56
2023/08/28 03:28:32;;;;;;;7.50;2.30;;;;;;;;;;5101352;28;20027;-56
2023/08/28 03:30:59;;;;;;;7.32;3.00;;;;;;;;;;5099515;28;20382;-57
2023/08/28 03:33:25;;;;;;;9.73;2.70;;;;;;;;;;5103892;28;20031;-56
2023/08/28 03:35:52;;;;;;;4.38;2.50;;;;;;;;;;5100737;28;20615;-56
2023/08/28 03:38:18;;;;;;;6.57;2.38;;;;;;;;;;5101365;28;20497;-56
2023/08/28 03:40:45;;;;;;;4.55;2.40;;;;;;;;;;5084959;28;20027;-56
2023/08/28 03:43:11;;;;;;;5.68;2.33;;;;;;;;;;5101869;28;20034;-56
2023/08/28 03:45:37;;;;;;;3.72;2.20;;;;;;;;;;5105450;28;20027;-56
2023/08/28 03:48:04;;;;;;;7.07;2.58;;;;;;;;;;5101664;28;20064;-56
2023/08/28 03:50:30;;;;;;;5.75;2.38;;;;;;;;;;5103157;28;20055;-56
2023/08/28 03:52:57;;;;;;;6.53;3.50;;;;;;;;;;5103782;28;20015;-56
2023/08/28 03:55:23;;;;;;;6.47;2.92;;;;;;;;;;5082054;28;20120;-56
2023/08/28 03:57:50;;;;;;;5.22;2.40;;;;;;;;;;5099245;28;20501;-55
2023/08/28 04:00:17;;;;;;;3.15;2.30;;;;;;;;;;5104576;28;20142;-56
2023/08/28 04:02:45;;;;;;;6.68;2.75;;;;;;;;;;5102591;28;20042;-56
2023/08/28 04:05:11;;;;;;;4.32;2.42;;;;;;;;;;5080800;28;20109;-56
2023/08/28 04:07:37;;;;;;;3.03;1.80;;;;;;;;;;5104330;28;20447;-56
2023/08/28 04:10:04;;;;;;;5.10;2.30;;;;;;;;;;5102074;28;20028;-56
2023/08/28 04:12:30;;;;;;;2.53;2.17;;;;;;;;;;5101951;28;20084;-56
2023/08/28 04:14:57;;;;;;;6.13;2.10;;;;;;;;;;5100678;28;20445;-56
2023/08/28 04:17:23;;;;;;;8.00;2.10;;;;;;;;;;5084577;28;20479;-56
2023/08/28 04:19:51;;;;;;;6.68;2.58;;;;;;;;;;5102512;28;20039;-56
2023/08/28 04:22:17;;;;;;;8.68;2.40;;;;;;;;;;5101470;28;20016;-57
2023/08/28 04:24:44;;;;;;;2.50;2.05;;;;;;;;;;5101135;28;20038;-57
2023/08/28 04:27:10;;;;;;;4.03;2.30;;;;;;;;;;5099973;28;20107;-56
2023/08/28 04:29:36;;;;;;;7.00;2.33;;;;;;;;;;5102669;28;20387;-57
2023/08/28 04:32:03;;;;;;;4.97;2.58;;;;;;;;;;5100772;28;20035;-56
2023/08/28 04:34:29;;;;;;;4.00;2.20;;;;;;;;;;5102917;28;20032;-56
2023/08/28 04:36:55;;;;;;;5.47;2.20;;;;;;;;;;5103179;28;20032;-56
2023/08/28 04:39:23;;;;;;;9.95;2.38;;;;;;;;;;5103813;28;20110;-56
2023/08/28 04:41:49;;;;;;;6.85;2.33;;;;;;;;;;5104115;28;20028;-56
2023/08/28 04:44:15;;;;;;;4.88;2.20;;;;;;;;;;5105153;28;20074;-56
2023/08/28 04:46:42;;;;;;;4.50;2.65;;;;;;;;;;5101901;28;20059;-56
2023/08/28 04:49:08;;;;;;;4.07;2.40;;;;;;;;;;5099075;28;20034;-56
2023/08/28 04:51:34;;;;;;;3.25;2.20;;;;;;;;;;5104516;28;20034;-56
2023/08/28 04:54:00;;;;;;;2.75;1.88;;;;;;;;;;5102227;28;20028;-56
2023/08/28 04:56:26;;;;;;;3.13;2.00;;;;;;;;;;5102300;28;20038;-59
2023/08/28 04:58:52;;;;;;;6.03;2.40;;;;;;;;;;5095757;28;20089;-56
2023/08/28 05:01:18;;;;;;;4.38;2.45;;;;;;;;;;5082382;28;20107;-60
2023/08/28 05:03:44;;;;;;;6.35;2.17;;;;;;;;;;5066895;28;20085;-60
2023/08/28 05:06:10;;;;;;;3.10;1.80;;;;;;;;;;5102735;28;20235;-56
2023/08/28 05:08:37;;;;;;;6.63;2.20;;;;;;;;;;5104060;28;20064;-56
2023/08/28 05:11:04;;;;;;;4.95;2.50;;;;;;;;;;5104069;28;20031;-57
2023/08/28 05:13:30;;;;;;;4.40;2.38;;;;;;;;;;5100780;28;20031;-56
2023/08/28 05:15:56;;;;;;;5.22;2.13;;;;;;;;;;5101835;28;20051;-56
2023/08/28 05:18:23;;;;;;;5.63;1.90;;;;;;;;;;5100710;28;20060;-56
2023/08/28 05:20:49;;;;;;;4.15;2.22;;;;;;;;;;5104150;28;20028;-56
2023/08/28 05:23:15;;;;;;;7.30;2.33;;;;;;;;;;5104703;28;20375;-56
2023/08/28 05:25:41;;;;;;;5.20;2.78;;;;;;;;;;5100431;28;20090;-56
2023/08/28 05:28:07;;;;;;;6.82;2.20;;;;;;;;;;5106465;28;20104;-57
2023/08/28 05:30:34;;;;;;;3.90;2.00;;;;;;;;;;5101222;28;20043;-57
2023/08/28 05:33:00;;;;;;;3.55;1.75;;;;;;;;;;5106235;28;20020;-56
2023/08/28 05:35:26;;;;;;;4.47;2.13;;;;;;;;;;5086628;28;20062;-56
2023/08/28 05:37:53;;;;;;;6.55;2.05;;;;;;;;;;5102193;28;20076;-56
2023/08/28 05:40:19;;;;;;;5.25;2.15;;;;;;;;;;5100927;28;20039;-56
2023/08/28 05:42:45;;;;;;;3.78;2.25;;;;;;;;;;5101006;28;20070;-56
2023/08/28 05:45:11;;;;;;;2.33;2.00;;;;;;;;;;5107304;28;20558;-57
2023/08/28 05:47:38;;;;;;;4.85;2.42;;;;;;;;;;5100430;27;20072;-57
2023/08/28 05:50:04;;;;;;;3.55;2.20;;;;;;;;;;5082962;28;20024;-57
2023/08/28 05:52:30;;;;;;;5.00;2.35;;;;;;;;;;5100426;28;20329;-56
2023/08/28 05:54:56;;;;;;;3.60;2.22;;;;;;;;;;5095380;27;20031;-57
2023/08/28 05:57:23;;;;;;;4.35;2.30;;;;;;;;;;5107305;27;20027;-57
2023/08/28 05:59:51;;;;;;;3.85;1.80;;;;;;;;;;5103580;28;20066;-57
2023/08/28 06:02:17;;;;;;;2.60;1.90;;;;;;;;;;5106544;27;20035;-57
2023/08/28 06:04:47;;;;;;;3.67;2.20;;;;;;;;;;5104953;28;20169;-57
2023/08/28 06:07:13;;;;;;;2.75;2.03;;;;;;;;;;5103177;28;20023;-57
2023/08/28 06:09:39;;;;;;;4.22;2.00;;;;;;;;;;5105160;28;20444;-58
2023/08/28 06:12:05;;;;;;;4.20;1.98;;;;;;;;;;5086461;28;20024;-57
2023/08/28 06:14:31;;;;;;;3.47;1.98;;;;;;;;;;5084534;28;20044;-57
2023/08/28 06:16:57;;;;;;;4.03;1.85;;;;;;;;;;5102324;28;20035;-57
2023/08/28 06:19:24;;;;;;;2.65;2.00;;;;;;;;;;5086300;28;20032;-57
2023/08/28 06:21:50;;;;;;;3.53;2.13;;;;;;;;;;5096512;28;20042;-57
2023/08/28 06:24:17;;;;;;;4.10;1.85;;;;;;;;;;5105661;28;20463;-57
2023/08/28 06:26:43;;;;;;;6.63;1.95;;;;;;;;;;5106515;27;20031;-56
2023/08/28 06:29:09;;;;;;;6.20;2.08;;;;;;;;;;5102041;28;20111;-57
2023/08/28 06:31:35;;;;;;;4.43;2.58;;;;;;;;;;5104343;28;20023;-57
2023/08/28 06:34:01;;;;;;;7.43;2.22;;;;;;;;;;5107168;27;20031;-57
2023/08/28 06:36:27;;;;;;;4.65;2.50;;;;;;;;;;5102121;27;20577;-57
2023/08/28 06:38:53;;;;;;;2.92;2.20;;;;;;;;;;5085143;28;20024;-57
2023/08/28 06:41:20;;;;;;;3.45;2.15;;;;;;;;;;5104907;27;20024;-57
2023/08/28 06:43:48;;;;;;;4.18;2.20;;;;;;;;;;5104001;27;20027;-58
2023/08/28 06:46:14;;;;;;;5.80;2.97;;;;;;;;;;5104191;28;20056;-56
2023/08/28 06:48:42;;;;;;;5.20;2.50;;;;;;;;;;5103425;28;20028;-57
2023/08/28 06:51:10;;;;;;;5.53;2.45;;;;;;;;;;5101766;27;20070;-57
2023/08/28 06:53:36;;;;;;;4.05;2.40;;;;;;;;;;5101594;28;20028;-57
2023/08/28 06:56:04;;;;;;;4.15;2.35;;;;;;;;;;5099014;28;20055;-58
2023/08/28 06:58:30;;;;;;;4.05;2.15;;;;;;;;;;5102777;28;20023;-56
2023/08/28 07:00:56;;;;;;;4.70;2.42;;;;;;;;;;5077668;28;20030;-57
2023/08/28 07:03:22;;;;;;;4.13;2.95;;;;;;;;;;5087769;28;20039;-57
2023/08/28 07:05:48;;;;;;;3.63;2.15;;;;;;;;;;5103080;28;20149;-57
2023/08/28 07:08:14;;;;;;;3.85;2.30;;;;;;;;;;5097905;28;20061;-57
2023/08/28 07:10:40;;;;;;;3.75;2.20;;;;;;;;;;5093812;28;20040;-57
2023/08/28 07:13:06;;;;;;;10.95;3.00;;;;;;;;;;5101036;28;20028;-57
2023/08/28 07:15:33;;;;;;;2.95;2.28;;;;;;;;;;5104057;28;20052;-62
2023/08/28 07:17:59;;;;;;;5.55;2.92;;;;;;;;;;5083328;28;20055;-57
2023/08/28 07:20:25;;;;;;;5.85;2.63;;;;;;;;;;5101905;28;20019;-60
2023/08/28 07:22:54;;;;;;;4.47;2.33;;;;;;;;;;5103899;28;20429;-63
2023/08/28 07:25:24;;;;;;;4.28;3.00;;;;;;;;;;5107461;28;20030;-63
2023/08/28 07:27:50;;;;;;;4.22;2.30;;;;;;;;;;5098548;28;20028;-62
2023/08/28 07:30:17;;;;;;;5.60;3.35;;;;;;;;;;5107922;28;20027;-62
2023/08/28 07:32:43;;;;;;;6.68;3.03;;;;;;;;;;5106365;28;20492;-62
2023/08/28 07:35:09;;;;;;;6.53;2.63;;;;;;;;;;5109881;28;20103;-62
2023/08/28 07:37:36;;;;;;;5.32;2.60;;;;;;;;;;5106702;28;20028;-62
2023/08/28 07:40:04;;;;;;;29.23;3.55;;;;;;;;;;5108383;28;20055;-62
2023/08/28 07:42:30;;;;;;;8.80;2.78;;;;;;;;;;5108459;28;20056;-62
2023/08/28 07:44:56;;;;;;;5.70;2.65;;;;;;;;;;5106117;28;20127;-62
2023/08/28 07:47:22;;;;;;;5.72;3.13;;;;;;;;;;5108105;28;20031;-62
2023/08/28 07:49:48;;;;;;;4.55;2.95;;;;;;;;;;5108967;28;20031;-62
2023/08/28 07:52:14;;;;;;;3.50;2.60;;;;;;;;;;5080423;28;20012;-62
2023/08/28 07:54:40;;;;;;;6.13;2.58;;;;;;;;;;5104900;28;20088;-62
2023/08/28 07:57:07;;;;;;;5.93;2.53;;;;;;;;;;5106459;28;20034;-63
2023/08/28 07:59:33;;;;;;;5.60;2.70;;;;;;;;;;5104271;28;20077;-62
2023/08/28 08:02:00;;;;;;;7.03;2.85;;;;;;;;;;5100362;28;20101;-62
2023/08/28 08:04:26;;;;;;;3.83;2.90;;;;;;;;;;5087749;28;20024;-62
2023/08/28 08:06:52;;;;;;;3.58;2.50;;;;;;;;;;5091765;28;20020;-62
2023/08/28 08:09:19;;;;;;;3.80;2.65;;;;;;;;;;5108008;28;20027;-63
2023/08/28 08:11:45;;;;;;;3.10;2.40;;;;;;;;;;5109023;28;20420;-62
2023/08/28 08:14:11;;;;;;;5.70;2.50;;;;;;;;;;5104430;28;20070;-62
2023/08/28 08:16:37;;;;;;;3.90;2.95;;;;;;;;;;5100539;28;20545;-62
2023/08/28 08:19:03;;;;;;;3.75;2.60;;;;;;;;;;5109723;28;20032;-62
2023/08/28 08:21:30;;;;;;;5.70;4.22;;;;;;;;;;5109544;28;20047;-62
2023/08/28 08:23:56;;;;;;;4.65;2.78;;;;;;;;;;5107869;28;20136;-62
2023/08/28 08:26:22;;;;;;;4.65;2.70;;;;;;;;;;5109991;28;20422;-62
2023/08/28 08:28:48;;;;;;;5.88;4.18;;;;;;;;;;5110989;28;20063;-62
2023/08/28 08:31:14;;;;;;;6.55;3.13;;;;;;;;;;5111853;28;20093;-62
2023/08/28 08:33:40;;;;;;;5.13;3.25;;;;;;;;;;5111273;28;20024;-62
2023/08/28 08:36:07;;;;;;;5.53;3.13;;;;;;;;;;5111794;28;20509;-62
2023/08/28 08:38:33;;;;;;;4.22;2.80;;;;;;;;;;5109987;28;20028;-62
2023/08/28 08:40:59;;;;;;;5.45;3.17;;;;;;;;;;5091640;28;20020;-62
2023/08/28 08:43:25;;;;;;;3.08;2.30;;;;;;;;;;5099687;28;20024;-62
2023/08/28 08:45:54;;;;;;;4.13;2.63;;;;;;;;;;5090925;28;20036;-62
2023/08/28 08:48:21;;;;;;;3.58;2.65;;;;;;;;;;5109925;28;20031;-62
2023/08/28 08:50:47;;;;;;;4.55;2.95;;;;;;;;;;5112851;28;20034;-62
2023/08/28 08:53:21;;;;;;;4.10;2.60;;;;;;;;;;5111371;28;20127;-62
2023/08/28 08:55:48;;;;;;;4.85;2.80;;;;;;;;;;5113342;28;20055;-62
2023/08/28 08:58:14;;;;;;;6.22;3.15;;;;;;;;;;5114523;28;20055;-62
2023/08/28 09:00:43;;;;;;;6.28;3.47;;;;;;;;;;5115050;28;20028;-62
2023/08/28 09:03:10;;;;;;;4.00;2.85;;;;;;;;;;5114724;28;20028;-62
2023/08/28 09:05:36;;;;;;;3.53;2.47;;;;;;;;;;5113718;28;20139;-62
2023/08/28 09:08:06;;;;;;;3.55;2.45;;;;;;;;;;5114899;28;20094;-63
2023/08/28 09:10:32;;;;;;;4.63;2.25;;;;;;;;;;5114023;28;20425;-62
2023/08/28 09:12:58;;;;;;;4.47;2.50;;;;;;;;;;5108738;28;20383;-63
2023/08/28 09:15:25;;;;;;;3.17;1.90;;;;;;;;;;5107756;28;20075;-57
2023/08/28 09:17:52;;;;;;;1.98;1.75;;;;;;;;;;5098668;28;20549;-57
2023/08/28 09:20:19;;;;;;;3.35;2.03;;;;;;;;;;5098066;28;20053;-57
2023/08/28 09:22:46;;;;;;;3.20;2.25;;;;;;;;;;5106459;27;20028;-57
2023/08/28 09:25:12;;;;;;;3.08;1.88;;;;;;;;;;5090827;28;20484;-57
2023/08/28 09:27:45;;;;;;;3.45;1.90;;;;;;;;;;5105599;28;20032;-58
2023/08/28 09:30:31;;;;;;;2.33;1.83;;;;;;;;;;5095539;28;20028;-57
2023/08/28 09:32:59;;;;;;;1.88;1.60;;;;;;;;;;5088294;28;20035;-60
2023/08/28 09:35:26;;;;;;;2.30;1.60;;;;;;;;;;5087758;28;20042;-57
2023/08/28 09:37:59;;;;;;;1.90;1.67;;;;;;;;;;5109275;27;20372;-63
2023/08/28 09:40:26;;;;;;;3.42;1.70;;;;;;;;;;5089743;28;20111;-63
2023/08/28 09:42:52;;;;;;;1.63;1.52;;;;;;;;;;5111895;28;20077;-64
2023/08/28 09:45:18;;;;;;;2.20;1.95;;;;;;;;;;5109850;28;20039;-63
2023/08/28 09:47:45;;;;;;;2.22;2.03;;;;;;;;;;5100162;28;20476;-63
2023/08/28 09:50:11;;;;;;;4.40;2.00;;;;;;;;;;5112400;28;20028;-63
2023/08/28 09:52:37;;;;;;;3.10;1.83;;;;;;;;;;5106342;28;20440;-63
2023/08/28 09:55:04;;;;;;;2.65;2.10;;;;;;;;;;5089992;28;20027;-63
2023/08/28 09:57:31;;;;;;;2.50;2.10;;;;;;;;;;5109178;28;20482;-64
2023/08/28 09:59:57;;;;;;;5.57;2.30;;;;;;;;;;5111202;28;20563;-63
2023/08/28 10:02:23;;;;;;;4.05;2.40;;;;;;;;;;5099982;28;20030;-65
2023/08/28 10:04:52;;;;;;;4.78;2.60;;;;;;;;;;5107101;28;20032;-63
2023/08/28 10:07:20;;;;;;;4.95;2.47;;;;;;;;;;5112363;28;20107;-63
2023/08/28 10:09:46;;;;;;;4.75;2.58;;;;;;;;;;5112131;27;20051;-63
2023/08/28 10:12:13;;;;;;;3.58;2.40;;;;;;;;;;5111746;28;20020;-63
2023/08/28 10:14:39;;;;;;;6.55;2.45;;;;;;;;;;5111494;28;20052;-62
2023/08/28 10:17:05;;;;;;;4.22;2.40;;;;;;;;;;5106315;28;20063;-63
2023/08/28 10:19:41;;;;;;;4.75;2.30;;;;;;;;;;5089939;28;20085;-61
2023/08/28 10:22:08;;;;;;;2.45;2.15;;;;;;;;;;5107947;28;20073;-63
2023/08/28 10:24:37;;;;;;;3.13;2.28;;;;;;;;;;5094633;28;20484;-61
2023/08/28 10:27:04;;;;;;;3.70;2.28;;;;;;;;;;5107158;28;20034;-61
2023/08/28 10:29:31;;;;;;;6.85;2.55;;;;;;;;;;5097854;28;20035;-61
2023/08/28 10:31:58;;;;;;;3.83;2.17;;;;;;;;;;5095647;28;20462;-61
2023/08/28 10:34:25;;;;;;;3.33;2.10;;;;;;;;;;5108455;28;20672;-61
2023/08/28 10:36:52;;;;;;;2.15;1.92;;;;;;;;;;5092265;28;20114;-61
2023/08/28 10:39:18;;;;;;;2.58;1.80;;;;;;;;;;5109783;28;20024;-62
2023/08/28 10:41:46;;;;;;;2.97;2.53;;;;;;;;;;5103498;28;20024;-61
2023/08/28 10:44:13;;;;;;;5.68;2.80;;;;;;;;;;5102646;28;20084;-61
2023/08/28 10:46:39;;;;;;;4.07;2.10;;;;;;;;;;5108754;28;20028;-61
2023/08/28 10:49:05;;;;;;;2.72;1.90;;;;;;;;;;5111301;27;20023;-61
2023/08/28 10:51:32;;;;;;;4.78;2.10;;;;;;;;;;5111683;27;20049;-61
2023/08/28 10:54:03;;;;;;;2.35;1.77;;;;;;;;;;5108448;28;20032;-61
2023/08/28 10:56:30;;;;;;;3.17;2.00;;;;;;;;;;5111756;27;20050;-62
2023/08/28 10:59:35;;;;;;;2.20;1.80;;;;;;;;;;5112174;27;20019;-62
2023/08/28 11:02:01;;;;;;;3.60;1.95;;;;;;;;;;5024657;28;20032;-62
2023/08/28 11:04:35;;;;;;;2.80;1.90;;;;;;;;;;5019239;28;20116;-62
2023/08/28 11:07:02;;;;;;;1.85;1.70;;;;;;;;;;5069524;28;20031;-62
2023/08/28 11:09:28;;;;;;;4.53;2.30;;;;;;;;;;5110511;28;20038;-62
2023/08/28 11:12:00;;;;;;;3.35;1.90;;;;;;;;;;5111170;28;20048;-62
2023/08/28 11:14:40;;;;;;;3.97;2.67;;;;;;;;;;5110587;28;20635;-62
2023/08/28 11:17:10;;;;;;;3.15;1.80;;;;;;;;;;5076995;28;20114;-62
2023/08/28 11:19:54;;;;;;;2.83;1.80;;;;;;;;;;5105208;28;20027;-62
2023/08/28 11:22:35;;;;;;;4.10;1.90;;;;;;;;;;5098211;28;20119;-62
2023/08/28 11:25:04;;;;;;;3.03;2.20;;;;;;;;;;5105533;28;20031;-62
2023/08/28 11:27:35;;;;;;;2.70;1.73;;;;;;;;;;5106150;28;20024;-62
2023/08/28 11:30:07;;;;;;;4.55;2.13;;;;;;;;;;5110571;28;20099;-62
2023/08/28 11:32:34;;;;;;;2.92;1.75;;;;;;;;;;5108691;28;20031;-62
2023/08/28 11:35:01;;;;;;;2.75;1.98;;;;;;;;;;5110640;28;20048;-61
2023/08/28 11:37:30;;;;;;;2.78;1.70;;;;;;;;;;5107531;28;20031;-62
2023/08/28 11:39:57;;;;;;;2.85;2.10;;;;;;;;;;5096539;28;20096;-62
2023/08/28 11:42:25;;;;;;;2.65;1.70;;;;;;;;;;5108446;27;20375;-62
2023/08/28 11:44:51;;;;;;;2.15;1.77;;;;;;;;;;5102832;28;20031;-63
2023/08/28 11:47:27;;;;;;;2.88;1.80;;;;;;;;;;5108912;28;20059;-63
2023/08/28 11:49:54;;;;;;;1.80;1.60;;;;;;;;;;5105119;28;20478;-63
2023/08/28 11:52:21;;;;;;;2.78;1.83;;;;;;;;;;5093178;28;20019;-63
2023/08/28 11:54:47;;;;;;;1.60;1.50;;;;;;;;;;5107545;28;20039;-63
2023/08/28 11:57:17;;;;;;;1.88;1.45;;;;;;;;;;5102347;28;20066;-63
2023/08/28 11:59:46;;;;;;;2.05;1.70;;;;;;;;;;5109152;28;20045;-63
2023/08/28 12:02:16;;;;;;;1.58;1.48;;;;;;;;;;5103668;28;20378;-63
2023/08/28 12:04:42;;;;;;;1.60;1.50;;;;;;;;;;5103198;28;20073;-63
2023/08/28 12:07:28;;;;;;;2.10;1.55;;;;;;;;;;5107042;28;20111;-63
2023/08/28 12:09:55;;;;;;;3.50;1.60;;;;;;;;;;5106456;28;20429;-63
2023/08/28 12:12:21;;;;;;;1.65;1.40;;;;;;;;;;5109974;28;20026;-62
2023/08/28 12:14:49;;;;;;;1.50;1.40;;;;;;;;;;5106646;28;20521;-62
2023/08/28 12:17:20;;;;;;;2.13;1.50;;;;;;;;;;5107408;28;20479;-63
2023/08/28 12:19:48;;;;;;;1.42;1.30;;;;;;;;;;5098017;28;20080;-63
2023/08/28 12:22:15;;;;;;;3.42;1.63;;;;;;;;;;5111371;28;20023;-62
2023/08/28 12:24:45;;;;;;;1.85;1.52;;;;;;;;;;5101864;28;20059;-63
2023/08/28 12:27:13;;;;;;;3.45;1.67;;;;;;;;;;5088226;28;20026;-63
2023/08/28 12:29:42;;;;;;;1.65;1.55;;;;;;;;;;5110721;28;20028;-63
2023/08/28 12:32:10;;;;;;;1.70;1.60;;;;;;;;;;5112878;28;20031;-63
2023/08/28 12:34:37;;;;;;;1.70;1.60;;;;;;;;;;5105511;28;20039;-63
2023/08/28 12:37:07;;;;;;;1.92;1.50;;;;;;;;;;5113276;28;20031;-62
2023/08/28 12:39:33;;;;;;;1.95;1.70;;;;;;;;;;5097025;28;20016;-63
2023/08/28 12:42:00;;;;;;;2.00;1.90;;;;;;;;;;5112533;28;20035;-64
2023/08/28 12:44:29;;;;;;;3.67;2.03;;;;;;;;;;5111105;28;20415;-63
2023/08/28 12:46:56;;;;;;;2.47;1.77;;;;;;;;;;5103503;28;20022;-65
2023/08/28 12:49:22;;;;;;;2.60;1.90;;;;;;;;;;5112035;28;20069;-64
2023/08/28 12:51:49;;;;;;;2.65;2.05;;;;;;;;;;5109470;27;20156;-64
2023/08/28 12:54:19;;;;;;;2.30;1.70;;;;;;;;;;5111360;28;20363;-64
2023/08/28 12:56:49;;;;;;;2.80;2.05;;;;;;;;;;5110288;28;20027;-64
2023/08/28 12:59:21;;;;;;;1.65;1.55;;;;;;;;;;5107916;28;20142;-64
2023/08/28 13:01:47;;;;;;;2.00;1.80;;;;;;;;;;5112721;28;20030;-64
2023/08/28 13:04:13;;;;;;;4.65;2.13;;;;;;;;;;5106137;27;20024;-64
2023/08/28 13:06:40;;;;;;;2.97;1.75;;;;;;;;;;5106092;28;20028;-64
2023/08/28 13:09:07;;;;;;;2.75;1.95;;;;;;;;;;5108893;28;20415;-64
2023/08/28 13:11:33;;;;;;;1.98;1.83;;;;;;;;;;5107867;28;20035;-63
2023/08/28 13:14:00;;;;;;;2.60;1.80;;;;;;;;;;5102936;28;20026;-64
2023/08/28 13:16:27;;;;;;;2.13;1.85;;;;;;;;;;5108462;27;20024;-65
2023/08/28 13:18:53;;;;;;;2.63;1.83;;;;;;;;;;5111579;28;20020;-64
2023/08/28 13:21:19;;;;;;;3.33;2.00;;;;;;;;;;5091879;28;20030;-64
2023/08/28 13:23:45;;;;;;;2.17;1.90;;;;;;;;;;5109994;28;20081;-64
2023/08/28 13:26:12;;;;;;;2.13;1.80;;;;;;;;;;5115171;27;20032;-64
2023/08/28 13:28:38;;;;;;;2.33;1.70;;;;;;;;;;5102715;28;20445;-64
2023/08/28 13:31:04;;;;;;;3.30;1.80;;;;;;;;;;5110600;28;20023;-64
2023/08/28 13:33:30;;;;;;;2.22;1.60;;;;;;;;;;5110796;28;20024;-64
2023/08/28 13:35:56;;;;;;;2.45;1.67;;;;;;;;;;5110215;27;20483;-65
2023/08/28 13:38:22;;;;;;;1.80;1.63;;;;;;;;;;5110702;28;20032;-64
2023/08/28 13:40:48;;;;;;;1.63;1.42;;;;;;;;;;5108925;28;20050;-64
2023/08/28 13:43:15;;;;;;;1.90;1.60;;;;;;;;;;5109954;28;20024;-64
2023/08/28 13:45:41;;;;;;;1.67;1.58;;;;;;;;;;5106235;27;20067;-64
2023/08/28 13:48:07;;;;;;;1.83;1.70;;;;;;;;;;5110477;27;20102;-63
2023/08/28 13:50:33;;;;;;;1.67;1.58;;;;;;;;;;5110322;28;20023;-64
2023/08/28 13:53:00;;;;;;;1.50;1.40;;;;;;;;;;5110159;27;20035;-64
2023/08/28 13:55:26;;;;;;;1.67;1.58;;;;;;;;;;5100489;28;20073;-64
2023/08/28 13:57:52;;;;;;;1.67;1.58;;;;;;;;;;5107781;27;20060;-64
2023/08/28 14:00:20;;;;;;;1.67;1.50;;;;;;;;;;5112035;28;20432;-64
2023/08/28 14:02:46;;;;;;;1.52;1.40;;;;;;;;;;5106050;28;20467;-63
2023/08/28 14:05:12;;;;;;;2.08;1.80;;;;;;;;;;5106272;28;20028;-64
2023/08/28 14:07:42;;;;;;;1.30;1.20;;;;;;;;;;5108378;28;20076;-64
2023/08/28 14:10:08;;;;;;;1.60;1.50;;;;;;;;;;5106515;28;20546;-63
2023/08/28 14:12:35;;;;;;;1.63;1.52;;;;;;;;;;5111502;28;20495;-65
2023/08/28 14:15:03;;;;;;;1.70;1.60;;;;;;;;;;5108743;28;20040;-64
2023/08/28 14:17:29;;;;;;;1.60;1.50;;;;;;;;;;5112366;28;20020;-64
2023/08/28 14:19:55;;;;;;;2.15;1.80;;;;;;;;;;5109579;28;20614;-64
2023/08/28 14:22:21;;;;;;;5.25;2.22;;;;;;;;;;5111653;28;20076;-63
2023/08/28 14:24:47;;;;;;;1.98;1.77;;;;;;;;;;5112012;28;20039;-63
2023/08/28 14:27:17;;;;;;;2.40;1.60;;;;;;;;;;5110048;28;20016;-64
2023/08/28 14:29:44;;;;;;;2.10;1.80;;;;;;;;;;5110838;28;20027;-63
2023/08/28 14:32:10;;;;;;;2.08;1.88;;;;;;;;;;5087677;28;20468;-63
2023/08/28 14:34:36;;;;;;;1.85;1.70;;;;;;;;;;5111565;28;20028;-63
2023/08/28 14:37:04;;;;;;;2.05;1.85;;;;;;;;;;5110186;28;20514;-63
2023/08/28 14:39:31;;;;;;;2.78;1.70;;;;;;;;;;5102635;28;20115;-64
2023/08/28 14:41:57;;;;;;;1.70;1.50;;;;;;;;;;5106190;28;20118;-63